sensor_id;sensor_type;location;lat;lon;timestamp;pressure;altitude;pressure_sealevel;temperature;humidity
72896;BME280;61036;53.224;6.554;2023-03-14T00:00:13;98628.22;;;10.38;100.00
72896;BME280;61036;53.224;6.554;2023-03-14T00:02:39;98630.25;;;10.27;100.00
72896;BME280;61036;53.224;6.554;2023-03-14T00:05:05;98624.03;;;10.43;100.00
72896;BME280;61036;53.224;6.554;2023-03-14T00:07:36;98627.75;;;10.42;100.00
72896;BME280;61036;53.224;6.554;2023-03-14T00:10:04;98621.53;;;10.50;100.00
72896;BME280;61036;53.224;6.554;2023-03-14T00:12:32;98613.09;;;10.37;100.00
72896;BME280;61036;53.224;6.554;2023-03-14T00:14:58;98612.25;;;10.44;100.00
72896;BME280;61036;53.224;6.554;2023-03-14T00:17:26;98601.47;;;10.44;100.00
72896;BME280;61036;53.224;6.554;2023-03-14T00:19:52;98595.91;;;10.62;100.00
72896;BME280;61036;53.224;6.554;2023-03-14T00:22:19;98599.94;;;10.74;100.00
72896;BME280;61036;53.224;6.554;2023-03-14T00:24:45;98591.16;;;10.64;100.00
72896;BME280;61036;53.224;6.554;2023-03-14T00:27:10;98607.19;;;10.58;100.00
72896;BME280;61036;53.224;6.554;2023-03-14T00:29:37;98607.38;;;10.56;100.00
72896;BME280;61036;53.224;6.554;2023-03-14T00:32:03;98605.16;;;10.51;100.00
72896;BME280;61036;53.224;6.554;2023-03-14T00:34:30;98602.97;;;10.55;100.00
72896;BME280;61036;53.224;6.554;2023-03-14T00:36:55;98593.22;;;10.54;100.00
72896;BME280;61036;53.224;6.554;2023-03-14T00:39:21;98595.72;;;10.56;100.00
72896;BME280;61036;53.224;6.554;2023-03-14T00:41:46;98590.50;;;10.46;100.00
72896;BME280;61036;53.224;6.554;2023-03-14T00:44:12;98589.84;;;10.44;100.00
72896;BME280;61036;53.224;6.554;2023-03-14T00:46:38;98596.75;;;10.63;100.00
72896;BME280;61036;53.224;6.554;2023-03-14T00:49:04;98589.84;;;10.44;100.00
72896;BME280;61036;53.224;6.554;2023-03-14T00:51:29;98599.63;;;10.45;100.00
72896;BME280;61036;53.224;6.554;2023-03-14T00:53:55;98592.03;;;10.40;100.00
72896;BME280;61036;53.224;6.554;2023-03-14T00:56:20;98600.94;;;10.49;100.00
72896;BME280;61036;53.224;6.554;2023-03-14T00:58:46;98595.22;;;10.44;100.00
72896;BME280;61036;53.224;6.554;2023-03-14T01:01:17;98586.66;;;10.57;100.00
72896;BME280;61036;53.224;6.554;2023-03-14T01:03:44;98586.13;;;10.37;100.00
72896;BME280;61036;53.224;6.554;2023-03-14T01:06:11;98584.63;;;10.42;100.00
72896;BME280;61036;53.224;6.554;2023-03-14T01:08:37;98574.00;;;10.49;100.00
72896;BME280;61036;53.224;6.554;2023-03-14T01:11:20;98582.09;;;10.41;100.00
72896;BME280;61036;53.224;6.554;2023-03-14T01:13:47;98596.91;;;10.37;100.00
72896;BME280;61036;53.224;6.554;2023-03-14T01:16:13;98598.78;;;10.44;100.00
72896;BME280;61036;53.224;6.554;2023-03-14T01:18:40;98600.47;;;10.53;100.00
72896;BME280;61036;53.224;6.554;2023-03-14T01:21:20;98598.91;;;10.75;100.00
72896;BME280;61036;53.224;6.554;2023-03-14T01:23:47;98588.31;;;10.74;100.00
72896;BME280;61036;53.224;6.554;2023-03-14T01:26:16;98579.84;;;10.85;100.00
72896;BME280;61036;53.224;6.554;2023-03-14T01:28:42;98580.38;;;10.72;100.00
72896;BME280;61036;53.224;6.554;2023-03-14T01:31:09;98580.53;;;10.79;100.00
72896;BME280;61036;53.224;6.554;2023-03-14T01:33:38;98586.25;;;10.84;100.00
72896;BME280;61036;53.224;6.554;2023-03-14T01:36:05;98590.94;;;10.98;100.00
72896;BME280;61036;53.224;6.554;2023-03-14T01:38:32;98580.66;;;10.94;100.00
72896;BME280;61036;53.224;6.554;2023-03-14T01:40:59;98590.63;;;10.85;100.00
72896;BME280;61036;53.224;6.554;2023-03-14T01:43:26;98582.19;;;10.96;100.00
72896;BME280;61036;53.224;6.554;2023-03-14T01:48:25;98590.75;;;11.00;100.00
72896;BME280;61036;53.224;6.554;2023-03-14T01:50:52;98583.72;;;10.91;100.00
72896;BME280;61036;53.224;6.554;2023-03-14T01:53:20;98600.38;;;10.94;100.00
72896;BME280;61036;53.224;6.554;2023-03-14T01:55:48;98593.16;;;10.87;100.00
72896;BME280;61036;53.224;6.554;2023-03-14T01:58:17;98589.25;;;10.97;100.00
72896;BME280;61036;53.224;6.554;2023-03-14T02:00:45;98587.72;;;11.03;100.00
72896;BME280;61036;53.224;6.554;2023-03-14T02:03:17;98587.97;;;10.77;100.00
72896;BME280;61036;53.224;6.554;2023-03-14T02:05:44;98586.81;;;10.63;100.00
72896;BME280;61036;53.224;6.554;2023-03-14T02:08:20;98591.16;;;10.72;100.00
72896;BME280;61036;53.224;6.554;2023-03-14T02:10:50;98587.28;;;10.75;100.00
72896;BME280;61036;53.224;6.554;2023-03-14T02:13:21;98585.28;;;10.69;100.00
72896;BME280;61036;53.224;6.554;2023-03-14T02:15:52;98580.22;;;10.66;100.00
72896;BME280;61036;53.224;6.554;2023-03-14T02:18:37;98573.66;;;10.52;100.00
72896;BME280;61036;53.224;6.554;2023-03-14T02:21:34;98566.56;;;10.75;100.00
72896;BME280;61036;53.224;6.554;2023-03-14T02:24:12;98568.97;;;10.46;100.00
72896;BME280;61036;53.224;6.554;2023-03-14T02:29:34;98566.94;;;10.56;100.00
72896;BME280;61036;53.224;6.554;2023-03-14T02:32:02;98555.16;;;10.57;100.00
72896;BME280;61036;53.224;6.554;2023-03-14T02:34:28;98556.00;;;10.33;100.00
72896;BME280;61036;53.224;6.554;2023-03-14T02:37:00;98553.47;;;10.48;100.00
72896;BME280;61036;53.224;6.554;2023-03-14T02:39:31;98565.78;;;10.42;100.00
72896;BME280;61036;53.224;6.554;2023-03-14T02:42:00;98555.47;;;10.38;100.00
72896;BME280;61036;53.224;6.554;2023-03-14T02:44:26;98553.97;;;10.51;100.00
72896;BME280;61036;53.224;6.554;2023-03-14T02:46:51;98556.34;;;10.30;100.00
72896;BME280;61036;53.224;6.554;2023-03-14T02:49:17;98555.50;;;10.29;100.00
72896;BME280;61036;53.224;6.554;2023-03-14T02:51:45;98563.94;;;10.26;100.00
72896;BME280;61036;53.224;6.554;2023-03-14T02:54:11;98555.47;;;10.21;100.00
72896;BME280;61036;53.224;6.554;2023-03-14T02:56:37;98558.00;;;10.15;100.00
72896;BME280;61036;53.224;6.554;2023-03-14T02:59:04;98563.56;;;10.38;100.00
72896;BME280;61036;53.224;6.554;2023-03-14T03:01:52;98553.13;;;10.35;100.00
72896;BME280;61036;53.224;6.554;2023-03-14T03:04:18;98557.50;;;10.19;100.00
72896;BME280;61036;53.224;6.554;2023-03-14T03:06:45;98554.78;;;10.19;100.00
72896;BME280;61036;53.224;6.554;2023-03-14T03:09:11;98564.25;;;10.23;100.00
72896;BME280;61036;53.224;6.554;2023-03-14T03:11:39;98559.19;;;10.12;100.00
72896;BME280;61036;53.224;6.554;2023-03-14T03:14:05;98564.56;;;9.88;100.00
72896;BME280;61036;53.224;6.554;2023-03-14T03:16:31;98567.09;;;9.97;100.00
72896;BME280;61036;53.224;6.554;2023-03-14T03:18:56;98564.19;;;9.82;100.00
72896;BME280;61036;53.224;6.554;2023-03-14T03:21:25;98568.91;;;9.80;100.00
72896;BME280;61036;53.224;6.554;2023-03-14T03:23:53;98573.13;;;9.83;100.00
72896;BME280;61036;53.224;6.554;2023-03-14T03:26:18;98579.16;;;9.69;100.00
72896;BME280;61036;53.224;6.554;2023-03-14T03:28:44;98568.19;;;9.62;100.00
72896;BME280;61036;53.224;6.554;2023-03-14T03:31:12;98582.16;;;9.57;100.00
72896;BME280;61036;53.224;6.554;2023-03-14T03:33:38;98572.56;;;9.55;100.00
72896;BME280;61036;53.224;6.554;2023-03-14T03:36:04;98581.69;;;9.78;100.00
72896;BME280;61036;53.224;6.554;2023-03-14T03:38:34;98578.78;;;9.55;100.00
72896;BME280;61036;53.224;6.554;2023-03-14T03:41:05;98584.19;;;9.64;100.00
72896;BME280;61036;53.224;6.554;2023-03-14T03:43:31;98589.38;;;9.65;100.00
72896;BME280;61036;53.224;6.554;2023-03-14T03:45:58;98586.34;;;9.52;100.00
72896;BME280;61036;53.224;6.554;2023-03-14T03:48:23;98578.09;;;9.53;100.00
72896;BME280;61036;53.224;6.554;2023-03-14T03:50:49;98575.56;;;9.52;100.00
72896;BME280;61036;53.224;6.554;2023-03-14T03:53:18;98576.28;;;9.62;100.00
72896;BME280;61036;53.224;6.554;2023-03-14T03:55:44;98583.34;;;9.63;100.00
72896;BME280;61036;53.224;6.554;2023-03-14T03:58:10;98577.91;;;9.47;100.00
72896;BME280;61036;53.224;6.554;2023-03-14T04:00:35;98574.25;;;9.64;100.00
72896;BME280;61036;53.224;6.554;2023-03-14T04:03:01;98583.03;;;9.74;100.00
72896;BME280;61036;53.224;6.554;2023-03-14T04:05:26;98577.50;;;9.76;100.00
72896;BME280;61036;53.224;6.554;2023-03-14T04:08:01;98571.28;;;9.75;100.00
72896;BME280;61036;53.224;6.554;2023-03-14T04:10:28;98571.78;;;9.79;100.00
72896;BME280;61036;53.224;6.554;2023-03-14T04:13:14;98578.63;;;9.65;100.00
72896;BME280;61036;53.224;6.554;2023-03-14T04:15:42;98578.13;;;9.61;100.00
72896;BME280;61036;53.224;6.554;2023-03-14T04:18:13;98574.09;;;9.57;100.00
72896;BME280;61036;53.224;6.554;2023-03-14T04:20:41;98582.00;;;9.67;100.00
72896;BME280;61036;53.224;6.554;2023-03-14T04:23:06;98592.38;;;9.46;100.00
72896;BME280;61036;53.224;6.554;2023-03-14T04:25:32;98582.31;;;9.56;100.00
72896;BME280;61036;53.224;6.554;2023-03-14T04:28:02;98578.97;;;9.70;100.00
72896;BME280;61036;53.224;6.554;2023-03-14T04:30:29;98586.88;;;9.64;100.00
72896;BME280;61036;53.224;6.554;2023-03-14T04:33:02;98577.94;;;9.55;100.00
72896;BME280;61036;53.224;6.554;2023-03-14T04:35:33;98576.63;;;9.67;100.00
72896;BME280;61036;53.224;6.554;2023-03-14T04:38:03;98571.53;;;9.48;100.00
72896;BME280;61036;53.224;6.554;2023-03-14T04:40:30;98578.09;;;9.45;100.00
72896;BME280;61036;53.224;6.554;2023-03-14T04:43:00;98574.03;;;9.41;100.00
72896;BME280;61036;53.224;6.554;2023-03-14T04:45:26;98567.09;;;9.30;100.00
72896;BME280;61036;53.224;6.554;2023-03-14T04:47:53;98569.84;;;9.47;100.00
72896;BME280;61036;53.224;6.554;2023-03-14T04:50:19;98566.47;;;9.36;100.00
72896;BME280;61036;53.224;6.554;2023-03-14T04:52:46;98570.13;;;9.35;100.00
72896;BME280;61036;53.224;6.554;2023-03-14T04:55:11;98569.34;;;9.43;100.00
72896;BME280;61036;53.224;6.554;2023-03-14T04:57:37;98574.06;;;9.49;100.00
72896;BME280;61036;53.224;6.554;2023-03-14T05:00:06;98570.84;;;9.46;100.00
72896;BME280;61036;53.224;6.554;2023-03-14T05:02:51;98564.75;;;9.35;100.00
72896;BME280;61036;53.224;6.554;2023-03-14T05:05:35;98576.38;;;9.36;100.00
72896;BME280;61036;53.224;6.554;2023-03-14T05:08:19;98568.31;;;9.44;100.00
72896;BME280;61036;53.224;6.554;2023-03-14T05:11:03;98561.41;;;9.42;100.00
72896;BME280;61036;53.224;6.554;2023-03-14T05:13:47;98570.53;;;9.49;100.00
72896;BME280;61036;53.224;6.554;2023-03-14T05:16:45;98559.50;;;9.26;100.00
72896;BME280;61036;53.224;6.554;2023-03-14T05:19:37;98569.75;;;9.22;100.00
72896;BME280;61036;53.224;6.554;2023-03-14T05:22:12;98563.13;;;9.43;100.00
72896;BME280;61036;53.224;6.554;2023-03-14T05:24:58;98565.75;;;9.34;100.00
72896;BME280;61036;53.224;6.554;2023-03-14T05:27:36;98564.22;;;9.24;100.00
72896;BME280;61036;53.224;6.554;2023-03-14T05:30:31;98573.47;;;9.29;100.00
72896;BME280;61036;53.224;6.554;2023-03-14T05:33:06;98567.81;;;9.41;100.00
72896;BME280;61036;53.224;6.554;2023-03-14T05:35:50;98562.25;;;9.34;100.00
72896;BME280;61036;53.224;6.554;2023-03-14T05:38:38;98563.41;;;9.31;100.00
72896;BME280;61036;53.224;6.554;2023-03-14T05:41:24;98565.94;;;9.41;100.00
72896;BME280;61036;53.224;6.554;2023-03-14T05:44:18;98562.72;;;9.29;100.00
72896;BME280;61036;53.224;6.554;2023-03-14T05:47:03;98569.69;;;9.48;100.00
72896;BME280;61036;53.224;6.554;2023-03-14T05:49:44;98570.50;;;9.41;100.00
72896;BME280;61036;53.224;6.554;2023-03-14T05:52:17;98562.25;;;9.34;100.00
72896;BME280;61036;53.224;6.554;2023-03-14T05:55:06;98576.28;;;9.62;100.00
72896;BME280;61036;53.224;6.554;2023-03-14T05:57:34;98571.69;;;9.46;100.00
72896;BME280;61036;53.224;6.554;2023-03-14T06:00:16;98569.47;;;9.33;100.00
72896;BME280;61036;53.224;6.554;2023-03-14T06:02:59;98568.59;;;9.25;100.00
72896;BME280;61036;53.224;6.554;2023-03-14T06:05:32;98572.81;;;9.35;100.00
72896;BME280;61036;53.224;6.554;2023-03-14T06:08:00;98574.13;;;9.15;100.00
72896;BME280;61036;53.224;6.554;2023-03-14T06:10:27;98567.09;;;9.30;100.00
72896;BME280;61036;53.224;6.554;2023-03-14T06:12:53;98582.75;;;9.35;100.00
72896;BME280;61036;53.224;6.554;2023-03-14T06:15:19;98593.69;;;9.42;100.00
72896;BME280;61036;53.224;6.554;2023-03-14T06:17:48;98588.63;;;9.38;100.00
72896;BME280;61036;53.224;6.554;2023-03-14T06:20:14;98589.28;;;9.32;100.00
72896;BME280;61036;53.224;6.554;2023-03-14T06:22:40;98597.03;;;9.27;100.00
72896;BME280;61036;53.224;6.554;2023-03-14T06:25:08;98608.66;;;9.36;100.00
72896;BME280;61036;53.224;6.554;2023-03-14T06:27:34;98630.00;;;9.37;100.00
72896;BME280;61036;53.224;6.554;2023-03-14T06:29:59;98661.16;;;8.88;100.00
72896;BME280;61036;53.224;6.554;2023-03-14T06:32:25;98671.03;;;8.25;100.00
72896;BME280;61036;53.224;6.554;2023-03-14T06:34:54;98672.47;;;8.02;100.00
72896;BME280;61036;53.224;6.554;2023-03-14T06:37:20;98676.41;;;8.08;100.00
72896;BME280;61036;53.224;6.554;2023-03-14T06:39:46;98692.06;;;7.85;100.00
72896;BME280;61036;53.224;6.554;2023-03-14T06:42:21;98703.38;;;7.88;100.00
72896;BME280;61036;53.224;6.554;2023-03-14T06:44:48;98706.16;;;7.69;100.00
72896;BME280;61036;53.224;6.554;2023-03-14T06:47:13;98717.00;;;7.40;100.00
72896;BME280;61036;53.224;6.554;2023-03-14T06:49:42;98725.16;;;7.10;100.00
72896;BME280;61036;53.224;6.554;2023-03-14T06:52:08;98745.06;;;6.98;100.00
72896;BME280;61036;53.224;6.554;2023-03-14T06:54:34;98753.13;;;6.59;100.00
72896;BME280;61036;53.224;6.554;2023-03-14T06:56:59;98764.41;;;6.53;100.00
72896;BME280;61036;53.224;6.554;2023-03-14T06:59:25;98768.75;;;6.35;100.00
72896;BME280;61036;53.224;6.554;2023-03-14T07:01:50;98783.38;;;6.21;100.00
72896;BME280;61036;53.224;6.554;2023-03-14T07:04:17;98797.44;;;6.13;100.00
72896;BME280;61036;53.224;6.554;2023-03-14T07:06:46;98805.88;;;5.99;100.00
72896;BME280;61036;53.224;6.554;2023-03-14T07:09:14;98823.50;;;6.11;100.00
72896;BME280;61036;53.224;6.554;2023-03-14T07:11:47;98842.16;;;6.02;100.00
72896;BME280;61036;53.224;6.554;2023-03-14T07:14:14;98849.22;;;5.72;100.00
72896;BME280;61036;53.224;6.554;2023-03-14T07:16:39;98867.16;;;5.60;100.00
72896;BME280;61036;53.224;6.554;2023-03-14T07:19:06;98878.81;;;5.59;100.00
72896;BME280;61036;53.224;6.554;2023-03-14T07:21:32;98882.38;;;5.39;100.00
72896;BME280;61036;53.224;6.554;2023-03-14T07:24:01;98897.22;;;5.32;100.00
72896;BME280;61036;53.224;6.554;2023-03-14T07:26:26;98907.13;;;5.41;100.00
72896;BME280;61036;53.224;6.554;2023-03-14T07:28:52;98913.53;;;5.49;100.00
72896;BME280;61036;53.224;6.554;2023-03-14T07:31:19;98919.38;;;5.43;100.00
72896;BME280;61036;53.224;6.554;2023-03-14T07:33:45;98929.81;;;5.25;100.00
72896;BME280;61036;53.224;6.554;2023-03-14T07:36:11;98947.41;;;5.28;100.00
72896;BME280;61036;53.224;6.554;2023-03-14T07:38:39;98942.69;;;5.20;100.00
72896;BME280;61036;53.224;6.554;2023-03-14T07:41:31;98953.16;;;5.23;100.00
72896;BME280;61036;53.224;6.554;2023-03-14T07:44:16;98965.75;;;5.33;100.00
72896;BME280;61036;53.224;6.554;2023-03-14T07:46:41;98967.25;;;5.14;100.00
72896;BME280;61036;53.224;6.554;2023-03-14T07:49:07;98977.28;;;5.33;100.00
72896;BME280;61036;53.224;6.554;2023-03-14T07:51:32;98981.91;;;5.31;100.00
72896;BME280;61036;53.224;6.554;2023-03-14T07:54:00;98993.72;;;5.49;100.00
72896;BME280;61036;53.224;6.554;2023-03-14T07:56:26;98999.25;;;5.37;100.00
72896;BME280;61036;53.224;6.554;2023-03-14T07:58:51;99011.28;;;5.63;100.00
72896;BME280;61036;53.224;6.554;2023-03-14T08:01:19;99026.28;;;5.55;100.00
72896;BME280;61036;53.224;6.554;2023-03-14T08:03:45;99028.03;;;5.65;100.00
72896;BME280;61036;53.224;6.554;2023-03-14T08:06:10;99037.84;;;5.76;100.00
72896;BME280;61036;53.224;6.554;2023-03-14T08:08:38;99045.00;;;5.87;100.00
72896;BME280;61036;53.224;6.554;2023-03-14T08:11:05;99051.91;;;6.10;100.00
72896;BME280;61036;53.224;6.554;2023-03-14T08:13:34;99056.16;;;6.13;100.00
72896;BME280;61036;53.224;6.554;2023-03-14T08:15:59;99069.13;;;6.29;100.00
72896;BME280;61036;53.224;6.554;2023-03-14T08:18:25;99069.53;;;6.55;100.00
72896;BME280;61036;53.224;6.554;2023-03-14T08:20:51;99084.09;;;6.62;100.00
72896;BME280;61036;53.224;6.554;2023-03-14T08:23:16;99085.97;;;6.71;100.00
72896;BME280;61036;53.224;6.554;2023-03-14T08:25:42;99102.63;;;6.75;100.00
72896;BME280;61036;53.224;6.554;2023-03-14T08:28:08;99112.16;;;6.68;100.00
72896;BME280;61036;53.224;6.554;2023-03-14T08:30:34;99109.69;;;6.55;100.00
72896;BME280;61036;53.224;6.554;2023-03-14T08:32:59;99120.16;;;6.58;100.00
72896;BME280;61036;53.224;6.554;2023-03-14T08:35:25;99119.00;;;6.81;100.00
72896;BME280;61036;53.224;6.554;2023-03-14T08:37:51;99138.03;;;6.78;100.00
72896;BME280;61036;53.224;6.554;2023-03-14T08:40:18;99137.66;;;6.83;100.00
72896;BME280;61036;53.224;6.554;2023-03-14T08:42:44;99143.44;;;6.88;100.00
72896;BME280;61036;53.224;6.554;2023-03-14T08:45:12;99145.56;;;6.94;100.00
72896;BME280;61036;53.224;6.554;2023-03-14T08:47:38;99162.53;;;6.74;100.00
72896;BME280;61036;53.224;6.554;2023-03-14T08:50:05;99163.53;;;7.03;100.00
72896;BME280;61036;53.224;6.554;2023-03-14T08:52:31;99167.75;;;7.37;100.00
72896;BME280;61036;53.224;6.554;2023-03-14T08:54:58;99168.59;;;7.68;100.00
72896;BME280;61036;53.224;6.554;2023-03-14T08:57:24;99183.50;;;7.61;100.00
72896;BME280;61036;53.224;6.554;2023-03-14T08:59:56;99182.06;;;8.07;100.00
72896;BME280;61036;53.224;6.554;2023-03-14T09:02:23;99193.19;;;8.99;100.00
72896;BME280;61036;53.224;6.554;2023-03-14T09:04:50;99193.53;;;9.89;100.00
72896;BME280;61036;53.224;6.554;2023-03-14T09:07:16;99196.75;;;9.37;100.00
72896;BME280;61036;53.224;6.554;2023-03-14T09:09:41;99199.72;;;9.71;100.00
72896;BME280;61036;53.224;6.554;2023-03-14T09:12:07;99212.25;;;9.80;100.00
72896;BME280;61036;53.224;6.554;2023-03-14T09:14:33;99223.06;;;10.62;100.00
72896;BME280;61036;53.224;6.554;2023-03-14T09:16:58;99232.69;;;11.26;100.00
72896;BME280;61036;53.224;6.554;2023-03-14T09:19:26;99241.13;;;9.60;100.00
72896;BME280;61036;53.224;6.554;2023-03-14T09:21:51;99263.06;;;8.31;100.00
72896;BME280;61036;53.224;6.554;2023-03-14T09:24:17;99276.84;;;7.97;100.00
72896;BME280;61036;53.224;6.554;2023-03-14T09:26:43;99276.50;;;7.81;100.00
72896;BME280;61036;53.224;6.554;2023-03-14T09:29:08;99291.88;;;8.10;100.00
72896;BME280;61036;53.224;6.554;2023-03-14T09:31:34;99296.00;;;7.83;100.00
72896;BME280;61036;53.224;6.554;2023-03-14T09:34:02;99311.16;;;7.94;100.00
72896;BME280;61036;53.224;6.554;2023-03-14T09:36:28;99331.00;;;7.51;100.00
72896;BME280;61036;53.224;6.554;2023-03-14T09:38:53;99335.34;;;7.42;100.00
72896;BME280;61036;53.224;6.554;2023-03-14T09:41:30;99330.47;;;7.57;100.00
72896;BME280;61036;53.224;6.554;2023-03-14T09:44:25;99342.56;;;7.72;100.00
72896;BME280;61036;53.224;6.554;2023-03-14T09:46:54;99358.47;;;7.85;100.00
72896;BME280;61036;53.224;6.554;2023-03-14T09:49:28;99366.41;;;7.96;100.00
72896;BME280;61036;53.224;6.554;2023-03-14T09:51:56;99364.78;;;7.84;100.00
72896;BME280;61036;53.224;6.554;2023-03-14T09:54:36;99372.66;;;7.76;100.00
72896;BME280;61036;53.224;6.554;2023-03-14T09:57:04;99386.00;;;7.87;100.00
72896;BME280;61036;53.224;6.554;2023-03-14T09:59:31;99409.66;;;7.51;100.00
72896;BME280;61036;53.224;6.554;2023-03-14T10:02:16;99410.84;;;7.59;100.00
72896;BME280;61036;53.224;6.554;2023-03-14T10:04:45;99419.06;;;7.46;100.00
72896;BME280;61036;53.224;6.554;2023-03-14T10:07:17;99425.63;;;7.74;100.00
72896;BME280;61036;53.224;6.554;2023-03-14T10:09:50;99435.88;;;7.90;100.00
72896;BME280;61036;53.224;6.554;2023-03-14T10:12:16;99442.63;;;7.84;100.00
72896;BME280;61036;53.224;6.554;2023-03-14T10:14:48;99449.47;;;8.50;100.00
72896;BME280;61036;53.224;6.554;2023-03-14T10:17:15;99451.66;;;8.35;100.00
72896;BME280;61036;53.224;6.554;2023-03-14T10:19:53;99469.97;;;8.51;100.00
72896;BME280;61036;53.224;6.554;2023-03-14T10:22:20;99476.59;;;8.87;100.00
72896;BME280;61036;53.224;6.554;2023-03-14T10:24:52;99496.59;;;9.04;100.00
72896;BME280;61036;53.224;6.554;2023-03-14T10:27:20;99502.38;;;8.99;100.00
72896;BME280;61036;53.224;6.554;2023-03-14T10:29:58;99501.97;;;8.94;100.00
72896;BME280;61036;53.224;6.554;2023-03-14T10:32:32;99510.03;;;8.94;100.00
72896;BME280;61036;53.224;6.554;2023-03-14T10:35:11;99524.34;;;8.64;100.00
72896;BME280;61036;53.224;6.554;2023-03-14T10:38:02;99524.63;;;9.11;100.00
72896;BME280;61036;53.224;6.554;2023-03-14T10:40:33;99528.03;;;9.03;100.00
72896;BME280;61036;53.224;6.554;2023-03-14T10:43:05;99535.13;;;9.14;100.00
72896;BME280;61036;53.224;6.554;2023-03-14T10:51:03;99572.56;;;9.46;100.00
72896;BME280;61036;53.224;6.554;2023-03-14T10:53:55;99588.41;;;8.89;100.00
72896;BME280;61036;53.224;6.554;2023-03-14T10:56:27;99590.63;;;9.15;100.00
72896;BME280;61036;53.224;6.554;2023-03-14T10:58:57;99597.97;;;9.13;100.00
72896;BME280;61036;53.224;6.554;2023-03-14T11:04:07;99625.66;;;8.10;100.00
72896;BME280;61036;53.224;6.554;2023-03-14T11:06:44;99639.50;;;8.68;100.00
72896;BME280;61036;53.224;6.554;2023-03-14T11:09:30;99636.72;;;9.01;100.00
72896;BME280;61036;53.224;6.554;2023-03-14T11:15:07;99655.47;;;9.22;97.68
72896;BME280;61036;53.224;6.554;2023-03-14T11:23:23;99689.13;;;8.85;85.41
72896;BME280;61036;53.224;6.554;2023-03-14T11:26:15;99695.25;;;8.66;84.67
72896;BME280;61036;53.224;6.554;2023-03-14T11:31:48;99709.69;;;8.22;84.25
72896;BME280;61036;53.224;6.554;2023-03-14T11:36:56;99728.09;;;8.27;84.41
72896;BME280;61036;53.224;6.554;2023-03-14T11:39:26;99740.59;;;8.16;87.92
72896;BME280;61036;53.224;6.554;2023-03-14T11:41:57;99760.13;;;8.18;87.72
72896;BME280;61036;53.224;6.554;2023-03-14T11:44:34;99753.03;;;8.61;90.01
72896;BME280;61036;53.224;6.554;2023-03-14T11:47:18;99751.44;;;9.42;87.94
72896;BME280;61036;53.224;6.554;2023-03-14T11:50:00;99763.28;;;9.60;85.44
72896;BME280;61036;53.224;6.554;2023-03-14T11:52:36;99774.38;;;9.77;87.43
72896;BME280;61036;53.224;6.554;2023-03-14T11:57:28;99781.13;;;9.31;83.26
72896;BME280;61036;53.224;6.554;2023-03-14T12:00:17;99785.91;;;9.06;83.42
72896;BME280;61036;53.224;6.554;2023-03-14T12:03:17;99785.47;;;8.69;84.51
72896;BME280;61036;53.224;6.554;2023-03-14T12:06:00;99795.81;;;8.53;86.73
72896;BME280;61036;53.224;6.554;2023-03-14T12:13:52;99821.09;;;8.50;98.28
72896;BME280;61036;53.224;6.554;2023-03-14T12:18:45;99837.63;;;8.45;97.05
72896;BME280;61036;53.224;6.554;2023-03-14T12:21:11;99846.66;;;8.11;100.00
72896;BME280;61036;53.224;6.554;2023-03-14T12:23:52;99865.56;;;8.09;100.00
72896;BME280;61036;53.224;6.554;2023-03-14T12:29:17;99879.75;;;8.22;100.00
72896;BME280;61036;53.224;6.554;2023-03-14T12:31:45;99870.56;;;8.36;99.93
72896;BME280;61036;53.224;6.554;2023-03-14T12:49:44;99909.19;;;8.13;100.00
72896;BME280;61036;53.224;6.554;2023-03-14T12:52:21;99922.19;;;7.84;100.00
72896;BME280;61036;53.224;6.554;2023-03-14T13:00:21;99934.09;;;7.22;100.00
72896;BME280;61036;53.224;6.554;2023-03-14T13:02:48;99943.09;;;7.45;94.99
72896;BME280;61036;53.224;6.554;2023-03-14T13:05:21;99942.59;;;7.97;88.52
72896;BME280;61036;53.224;6.554;2023-03-14T13:10:23;99939.66;;;8.79;89.97
72896;BME280;61036;53.224;6.554;2023-03-14T13:12:56;99958.84;;;8.63;82.42
72896;BME280;61036;53.224;6.554;2023-03-14T13:15:35;99970.94;;;8.69;80.89
72896;BME280;61036;53.224;6.554;2023-03-14T13:18:34;99968.13;;;8.70;81.86
72896;BME280;61036;53.224;6.554;2023-03-14T13:23:36;99991.44;;;8.92;85.29
72896;BME280;61036;53.224;6.554;2023-03-14T13:26:02;99998.41;;;8.84;88.20
72896;BME280;61036;53.224;6.554;2023-03-14T13:28:30;100009.88;;;8.30;84.17
72896;BME280;61036;53.224;6.554;2023-03-14T13:30:59;100007.78;;;8.33;83.59
72896;BME280;61036;53.224;6.554;2023-03-14T13:33:25;100007.47;;;8.60;85.74
72896;BME280;61036;53.224;6.554;2023-03-14T13:35:59;100013.81;;;8.37;86.99
72896;BME280;61036;53.224;6.554;2023-03-14T13:38:27;100023.78;;;8.23;88.10
72896;BME280;61036;53.224;6.554;2023-03-14T13:40:55;100037.91;;;8.61;85.85
72896;BME280;61036;53.224;6.554;2023-03-14T13:43:32;100038.75;;;8.50;85.13
72896;BME280;61036;53.224;6.554;2023-03-14T13:46:14;100042.78;;;8.44;84.38
72896;BME280;61036;53.224;6.554;2023-03-14T13:48:52;100038.38;;;8.77;83.05
72896;BME280;61036;53.224;6.554;2023-03-14T13:51:19;100046.22;;;8.58;83.71
72896;BME280;61036;53.224;6.554;2023-03-14T13:56:18;100044.84;;;8.97;86.18
72896;BME280;61036;53.224;6.554;2023-03-14T13:58:44;100054.19;;;8.24;93.10
72896;BME280;61036;53.224;6.554;2023-03-14T14:03:38;100074.00;;;8.34;91.62
72896;BME280;61036;53.224;6.554;2023-03-14T14:06:17;100079.97;;;8.27;90.09
72896;BME280;61036;53.224;6.554;2023-03-14T14:08:45;100082.22;;;7.97;90.05
72896;BME280;61036;53.224;6.554;2023-03-14T14:11:22;100097.38;;;8.56;88.90
72896;BME280;61036;53.224;6.554;2023-03-14T14:13:54;100101.97;;;7.96;86.52
72896;BME280;61036;53.224;6.554;2023-03-14T14:16:25;100108.59;;;8.04;84.90
72896;BME280;61036;53.224;6.554;2023-03-14T14:18:55;100120.34;;;8.14;84.30
72896;BME280;61036;53.224;6.554;2023-03-14T14:21:21;100124.72;;;8.04;79.71
72896;BME280;61036;53.224;6.554;2023-03-14T14:23:49;100128.63;;;8.11;79.32
72896;BME280;61036;53.224;6.554;2023-03-14T14:26:18;100134.53;;;7.68;82.19